Airfield :
LOGIN :

Register | Disclaimer

   EN    FR    IT 

 










Legend :    VFR   Marginal VFR   IFR   Intensive IFR   Very Intensive IFR
Visi :
Ceiling :
>= 8 km
>= 3000ft
5 to 8 km
1000 to 3000 ft
1500m to 5 km
500 to 1000 ft
800 to 1500m
200 to 500 ft
< 800m
< 200 ft
Symbols :   Thunderstorms  Fog  Heavy snow  Heavy precipitations  Wind > 20 kt
SIGMETs :     Misc.  Thunderstorms  Icing  Turbulence  Mountain Waves  Volcanic Ashes






- Airport Elevation : 19 ft
- IATA code : LCY


EGLC - London City

CURRENT METAR :
  • 201450Z AUTO 21011KT 170V240 9999 BKN027 BKN035 19/12 Q1002

EXPIRED METARs :
  • 201420Z AUTO 20009KT 160V240 9999 SCT027 BKN035 19/12 Q1002
  • 201350Z AUTO 22012KT 9999 SCT029 BKN036 19/11 Q1002
  • 201320Z AUTO 22012KT 190V260 9999 BKN027 BKN036 19/12 Q1001
  • 201250Z AUTO 21016KT 170V240 9999 SCT029 BKN037 18/11 Q1002
  • 201220Z AUTO 20013KT 170V240 9999 BKN029 18/12 Q1001

TAF TAF EGLC
Valid from the 20 at 15:00 until the 20 at 21:00 UTC


201400Z 2015/2021 20010KT 9999 SCT030
PROB30
TEMPO 2020/2021 BKN013
ATIS : +44 20 7646 0224



MET'MAP, your aeronautical weather chart ! - Copyright ORBIFLY December 2007 - Disclaimer

ORBIFLY MET'MAP TEAM :

Programming & Development : Alexandra Zaïnal
Concept & original design : Baudouin d'Aumeries
Assistance for programming : Marc-Olivier Méhu
Technical & hardware support : Manuel Goepfert

Contact : metmap@orbifly.com




SOURCES & CREDITS :

   NOAA